createdAt,value
2019-02-27T13:38:32.363Z,24.90
2019-02-27T13:41:02.587Z,25.10
2019-02-27T13:43:33.729Z,25.30
2019-02-27T13:46:03.332Z,25.40
2019-02-27T13:48:32.942Z,25.60
2019-02-27T13:51:02.752Z,25.60
2019-02-27T13:53:32.356Z,25.70
2019-02-27T13:56:01.631Z,25.70
2019-02-27T13:58:35.570Z,25.90
2019-02-27T14:01:02.203Z,26.00
2019-02-27T14:03:31.817Z,26.00
2019-02-27T14:06:01.420Z,26.10
2019-02-27T14:08:32.098Z,26.00
2019-02-27T14:11:02.033Z,26.10
2019-02-27T14:13:31.476Z,26.00
2019-02-27T14:16:01.627Z,26.20
2019-02-27T14:18:30.940Z,26.10
2019-02-27T14:21:01.709Z,26.10
2019-02-27T14:23:31.548Z,25.90
2019-02-27T14:26:05.612Z,25.80
2019-02-27T14:28:31.816Z,25.90
2019-02-27T14:31:01.084Z,25.80
2019-02-27T14:33:30.359Z,26.00
2019-02-27T14:35:59.891Z,26.00
2019-02-27T14:38:29.234Z,26.00
2019-02-27T14:40:58.502Z,25.90
2019-02-27T14:43:28.100Z,25.80
2019-02-27T14:45:57.373Z,26.00
2019-02-27T14:48:26.648Z,25.50
2019-02-27T14:50:56.207Z,25.60
2019-02-27T14:53:25.488Z,25.50
2019-02-27T14:55:55.007Z,25.60
2019-02-27T14:58:25.063Z,25.60
2019-02-27T15:00:54.465Z,25.80
2019-02-27T15:03:23.734Z,25.80
2019-02-27T15:05:53.249Z,25.70
2019-02-27T15:08:25.150Z,25.60
2019-02-27T15:10:54.199Z,25.80
2019-02-27T15:13:28.093Z,25.70
2019-02-27T15:15:54.703Z,25.70
2019-02-27T15:18:23.975Z,25.70
2019-02-27T15:20:53.691Z,25.70
2019-02-27T15:23:24.559Z,25.90
2019-02-27T15:25:54.359Z,25.60
2019-02-27T15:28:23.630Z,25.80
2019-02-27T15:30:52.906Z,25.60
2019-02-27T15:33:22.207Z,25.40
2019-02-27T15:35:55.149Z,25.30
2019-02-27T15:38:22.719Z,25.50
2019-02-27T15:40:51.999Z,25.50
2019-02-27T15:43:21.567Z,25.50
2019-02-27T15:45:50.861Z,25.00
2019-02-27T15:48:20.459Z,25.00
2019-02-27T15:50:50.072Z,24.70
2019-02-27T15:53:19.679Z,24.70
2019-02-27T15:55:49.283Z,24.80
2019-02-27T15:58:18.901Z,24.70
2019-02-27T16:00:52.291Z,24.80
2019-02-27T16:03:19.748Z,24.80
2019-02-27T16:05:49.259Z,24.50
2019-02-27T16:08:20.262Z,24.40
2019-02-27T16:10:54.814Z,24.30
2019-02-27T16:13:20.853Z,23.90
2019-02-27T16:15:50.439Z,23.70
2019-02-27T16:18:19.707Z,23.40
2019-02-27T16:20:50.022Z,22.90
2019-02-27T16:23:19.828Z,22.60
2019-02-27T16:25:52.784Z,22.20
2019-02-27T16:28:20.632Z,22.10
2019-02-27T16:30:49.904Z,21.90
2019-02-27T16:33:23.167Z,21.50
2019-02-27T16:35:50.423Z,21.30
2019-02-27T16:38:19.947Z,21.20
2019-02-27T16:40:52.532Z,21.00
2019-02-27T16:43:20.480Z,20.80
2019-02-27T16:45:49.753Z,20.80
2019-02-27T16:48:19.345Z,20.70
2019-02-27T16:50:48.604Z,20.50
2019-02-27T16:53:19.489Z,20.50
2019-02-27T16:55:48.939Z,20.30
2019-02-27T16:58:18.220Z,20.10
2019-02-27T17:00:47.485Z,20.00
2019-02-27T17:03:16.755Z,19.90
2019-02-27T17:05:46.028Z,19.90
2019-02-27T17:08:15.311Z,19.80
2019-02-27T17:10:44.892Z,19.70
2019-02-27T17:13:15.552Z,19.50
2019-02-27T17:15:45.123Z,19.40
2019-02-27T17:18:14.648Z,19.20
2019-02-27T17:20:46.555Z,19.10
2019-02-27T17:23:14.922Z,18.90
2019-02-27T17:25:44.198Z,18.80
2019-02-27T17:28:13.800Z,18.50
2019-02-27T17:30:43.379Z,18.30
2019-02-27T17:33:13.007Z,18.20
2019-02-27T17:35:42.282Z,18.10
2019-02-27T17:38:13.816Z,18.00
2019-02-27T17:40:43.952Z,17.80
2019-02-27T17:43:13.222Z,17.80
2019-02-27T17:45:44.267Z,17.70
2019-02-27T17:48:14.128Z,17.60
2019-02-27T17:50:43.405Z,17.50
2019-02-27T17:53:12.680Z,17.30
2019-02-27T17:55:42.614Z,17.20
2019-02-27T17:58:11.921Z,17.00
2019-02-27T18:00:50.034Z,17.00
2019-02-27T18:03:16.954Z,16.90
2019-02-27T18:05:46.234Z,16.80
2019-02-27T18:08:16.400Z,16.70
2019-02-27T18:10:46.633Z,16.50
2019-02-27T18:13:15.903Z,16.40
2019-02-27T18:15:45.183Z,16.20
2019-02-27T18:18:14.739Z,16.20
2019-02-27T18:20:44.015Z,16.10
2019-02-27T18:23:13.286Z,16.00
2019-02-27T18:25:42.569Z,15.80
2019-02-27T18:28:12.082Z,15.70
2019-02-27T18:30:42.663Z,15.60
2019-02-27T18:33:14.374Z,15.50
2019-02-27T18:35:43.017Z,15.40
2019-02-27T18:38:12.281Z,15.30
2019-02-27T18:40:42.915Z,15.10
2019-02-27T18:43:13.173Z,15.00
2019-02-27T18:45:42.453Z,15.00
2019-02-27T18:48:12.076Z,14.90
2019-02-27T18:50:41.343Z,14.80
2019-02-27T18:53:13.344Z,14.70
2019-02-27T18:55:41.622Z,14.60
2019-02-27T18:58:12.695Z,14.40
2019-02-27T19:00:42.268Z,14.40
2019-02-27T19:03:12.683Z,14.20
2019-02-27T19:05:42.324Z,14.20
2019-02-27T19:08:11.649Z,14.10
2019-02-27T19:10:42.580Z,13.90
2019-02-27T19:13:12.132Z,13.80
2019-02-27T19:15:45.248Z,13.60
2019-02-27T19:18:12.974Z,13.50
2019-02-27T19:20:45.547Z,13.50
2019-02-27T19:23:17.639Z,13.40
2019-02-27T19:25:45.901Z,13.30
2019-02-27T19:28:15.316Z,13.10
2019-02-27T19:30:44.596Z,13.10
2019-02-27T19:33:13.870Z,13.00
2019-02-27T19:35:43.148Z,13.00
2019-02-27T19:38:13.727Z,12.90
2019-02-27T19:40:43.208Z,12.90
2019-02-27T19:43:12.564Z,12.70
2019-02-27T19:45:42.415Z,12.60
2019-02-27T19:48:11.971Z,12.50
2019-02-27T19:50:45.297Z,12.40
2019-02-27T19:53:15.451Z,12.40
2019-02-27T19:55:44.720Z,12.30
2019-02-27T19:58:17.191Z,12.20
2019-02-27T20:00:48.535Z,12.10
2019-02-27T20:03:16.798Z,12.00
2019-02-27T20:05:46.401Z,12.00
2019-02-27T20:08:16.117Z,12.00
2019-02-27T20:10:45.725Z,11.90
2019-02-27T20:13:15.319Z,11.80
2019-02-27T20:15:45.680Z,11.70
2019-02-27T20:18:16.080Z,11.70
2019-02-27T20:20:45.493Z,11.60
2019-02-27T20:23:15.088Z,11.50
2019-02-27T20:25:44.700Z,11.40
2019-02-27T20:28:14.048Z,11.40
2019-02-27T20:30:43.319Z,11.40
2019-02-27T20:33:12.912Z,11.30
2019-02-27T20:35:42.176Z,11.30
2019-02-27T20:38:15.362Z,11.20
2019-02-27T20:40:42.992Z,11.20
2019-02-27T20:43:12.264Z,11.10
2019-02-27T20:45:42.926Z,11.10
2019-02-27T20:48:12.547Z,11.10
2019-02-27T20:50:58.431Z,11.00
2019-02-27T20:53:27.713Z,10.90
2019-02-27T20:55:57.398Z,10.90
2019-02-27T20:58:26.927Z,10.80
2019-02-27T21:00:56.189Z,10.80
2019-02-27T21:03:27.183Z,10.70
2019-02-27T21:05:56.871Z,10.60
2019-02-27T21:08:26.155Z,10.60
2019-02-27T21:10:56.385Z,10.60
2019-02-27T21:13:25.683Z,10.50
2019-02-27T21:15:55.031Z,10.50
2019-02-27T21:18:24.311Z,10.50
2019-02-27T21:20:53.985Z,10.40
2019-02-27T21:23:23.262Z,10.40
2019-02-27T21:25:52.533Z,10.30
2019-02-27T21:28:21.813Z,10.20
2019-02-27T21:30:52.331Z,10.10
2019-02-27T21:33:22.490Z,10.10
2019-02-27T21:35:51.866Z,10.00
2019-02-27T21:38:21.444Z,10.00
2019-02-27T21:40:50.718Z,10.00
2019-02-27T21:43:25.266Z,10.00
2019-02-27T21:45:51.637Z,9.80
2019-02-27T21:48:23.561Z,9.80
2019-02-27T21:50:51.884Z,9.70
2019-02-27T21:53:21.162Z,9.70
2019-02-27T21:55:50.431Z,9.60
2019-02-27T21:58:20.695Z,9.50
2019-02-27T22:00:50.466Z,9.40
2019-02-27T22:03:19.741Z,9.30
2019-02-27T22:05:52.663Z,9.30
2019-02-27T22:08:20.397Z,9.20
2019-02-27T22:10:53.084Z,9.20
2019-02-27T22:13:28.869Z,9.10
2019-02-27T22:15:55.767Z,9.10
2019-02-27T22:18:22.958Z,9.00
2019-02-27T22:20:52.254Z,8.90
2019-02-27T22:23:21.524Z,8.90
2019-02-27T22:25:50.790Z,8.90
2019-02-27T22:28:20.803Z,8.80
2019-02-27T22:30:50.119Z,8.80
2019-02-27T22:33:23.043Z,8.70
2019-02-27T22:35:51.025Z,8.70
2019-02-27T22:38:25.690Z,8.70
2019-02-27T22:40:51.575Z,8.70
2019-02-27T22:43:21.959Z,8.60
2019-02-27T22:45:51.977Z,8.60
2019-02-27T22:48:21.250Z,8.50
2019-02-27T22:50:50.522Z,8.50
2019-02-27T22:53:19.786Z,8.50
2019-02-27T22:55:49.318Z,8.40
2019-02-27T22:58:19.695Z,8.40
2019-02-27T23:01:06.729Z,8.30
2019-02-27T23:03:46.351Z,8.30
2019-02-27T23:06:15.647Z,8.30
2019-02-27T23:08:44.911Z,8.30
2019-02-27T23:11:14.711Z,8.20
2019-02-27T23:13:48.527Z,8.10
2019-02-27T23:16:18.852Z,8.10
2019-02-27T23:18:48.211Z,8.10
2019-02-27T23:21:17.916Z,8.10
2019-02-27T23:23:47.572Z,8.10
2019-02-27T23:26:19.855Z,8.00
2019-02-27T23:28:47.853Z,7.90
2019-02-27T23:31:22.184Z,7.90
2019-02-27T23:33:48.395Z,7.90
2019-02-27T23:36:17.659Z,7.80
2019-02-27T23:38:47.253Z,7.80
2019-02-27T23:41:16.524Z,7.80
2019-02-27T23:43:46.031Z,7.80
2019-02-27T23:46:15.702Z,7.70
2019-02-27T23:48:46.711Z,7.70
2019-02-27T23:51:16.910Z,7.70
2019-02-27T23:53:46.538Z,7.60
2019-02-27T23:56:19.286Z,7.60
2019-02-27T23:58:46.810Z,7.50
